Terminal Aerodrome Forecast
Issued by NWS Albany, NY

Home | Current Version | Previous Version | Text Only | Print | Product List | Glossary On
Versions: 1 2 3 4 5 6 7 8 9 10 11 12 13 14 15 16 17 18 19 20 21 22 23
000
FTUS41 KALY 262335
TAFGFL
TAF
KGFL 262335Z 2700/2724 19007KT P6SM SCT050 BKN100
     FM270600 19004KT P6SM VCSH SCT025 BKN100
     FM271100 19008KT 5SM -SHRA BR SCT010 OVC025
      TEMPO 2713/2717 2SM SHRA BR OVC010
     FM271800 23009KT P6SM VCSH SCT020 BKN040=

USA.gov is the U.S. government's official web portal to all federal, state and local government web resources and services.